Time;durP1;ratioP1;P1;durP2;ratioP2;P2;SDS_P1;SDS_P2;PMS_P1;PMS_P2;Temp;Humidity;BMP_temperature;BMP_pressure;BME280_temperature;BME280_humidity;BME280_pressure;Samples;Min_cycle;Max_cycle;Signal;HPM_P1;HPM_P2
2021/05/31 00:01:32;;;;;;;31.52;16.65;;;;;;;8.84;100.00;94781.19;10411308;28;20036;-84
2021/05/31 00:06:39;;;;;;;23.17;15.13;;;;;;;8.97;100.00;94774.53;10411174;28;20029;-84
2021/05/31 00:11:40;;;;;;;26.00;16.98;;;;;;;9.02;100.00;94777.25;10410026;28;20464;-84
2021/05/31 00:16:42;;;;;;;28.33;17.45;;;;;;;8.92;100.00;94772.66;10411029;28;20108;-85
2021/05/31 00:21:42;;;;;;;25.00;15.80;;;;;;;8.96;100.00;94771.06;10409678;28;20030;-83
2021/05/31 00:26:43;;;;;;;22.40;14.03;;;;;;;8.95;100.00;94766.75;10415383;28;20528;-83
2021/05/31 00:31:44;;;;;;;23.90;15.63;;;;;;;8.83;100.00;94769.66;10414213;28;20033;-84
2021/05/31 00:36:44;;;;;;;25.37;15.90;;;;;;;8.94;100.00;94770.50;10416531;28;20029;-84
2021/05/31 00:41:48;;;;;;;51.55;17.70;;;;;;;8.98;100.00;94763.53;10417923;28;20284;-84
2021/05/31 00:46:50;;;;;;;32.13;16.92;;;;;;;9.03;100.00;94758.22;10418171;28;20071;-84
2021/05/31 00:51:51;;;;;;;22.08;14.75;;;;;;;9.05;100.00;94756.06;10416739;28;20087;-83
2021/05/31 00:56:52;;;;;;;24.30;14.75;;;;;;;9.02;100.00;94751.22;10416065;28;20029;-83
2021/05/31 01:01:53;;;;;;;26.35;15.45;;;;;;;9.00;100.00;94753.38;10415945;28;20551;-77
2021/05/31 01:07:44;;;;;;;26.17;15.32;;;;;;;8.92;100.00;94747.69;10412471;28;20025;-82
2021/05/31 01:13:20;;;;;;;22.35;14.50;;;;;;;8.87;100.00;94738.59;10415949;28;20045;-84
2021/05/31 01:18:26;;;;;;;25.55;16.15;;;;;;;9.02;100.00;94740.50;10406030;28;20492;-85
2021/05/31 01:23:30;;;;;;;22.08;14.93;;;;;;;9.05;100.00;94739.19;10415471;28;20047;-84
2021/05/31 01:28:52;;;;;;;25.13;15.23;;;;;;;8.90;100.00;94731.88;10415238;28;20107;-84
2021/05/31 01:33:54;;;;;;;22.98;16.00;;;;;;;8.84;100.00;94727.59;10415348;28;20037;-84
2021/05/31 01:38:55;;;;;;;23.15;15.18;;;;;;;8.90;100.00;94726.50;10405806;28;20087;-82
2021/05/31 01:43:56;;;;;;;22.90;14.43;;;;;;;8.97;100.00;94731.63;10411046;28;20029;-83
2021/05/31 01:48:59;;;;;;;21.08;14.90;;;;;;;9.07;100.00;94720.97;10413989;28;20544;-83
2021/05/31 01:54:00;;;;;;;24.83;15.60;;;;;;;9.07;100.00;94715.59;10413020;28;20044;-82
2021/05/31 01:59:01;;;;;;;24.95;15.02;;;;;;;9.21;100.00;94711.34;10410403;28;20052;-83
2021/05/31 02:04:02;;;;;;;23.80;15.27;;;;;;;9.35;100.00;94698.22;10414019;28;20626;-82
2021/05/31 02:09:03;;;;;;;21.98;15.10;;;;;;;9.29;100.00;94690.44;10412186;28;20021;-82
2021/05/31 02:14:09;;;;;;;20.10;14.02;;;;;;;9.33;100.00;94681.59;10413291;28;20033;-83
2021/05/31 02:19:11;;;;;;;26.38;14.77;;;;;;;9.33;100.00;94683.47;10413175;28;20029;-82
2021/05/31 02:24:12;;;;;;;18.77;13.55;;;;;;;9.21;100.00;94675.69;10413123;28;20461;-82
2021/05/31 02:29:12;;;;;;;23.98;15.02;;;;;;;9.29;100.00;94679.72;10412625;28;20022;-82
2021/05/31 02:34:16;;;;;;;24.70;14.13;;;;;;;9.32;100.00;94674.63;10412466;28;20489;-82
2021/05/31 02:39:16;;;;;;;19.42;13.40;;;;;;;9.41;100.00;94667.66;10410480;28;20080;-82
2021/05/31 02:44:17;;;;;;;19.95;13.20;;;;;;;9.49;100.00;94669.00;10411707;28;20063;-84
2021/05/31 02:49:17;;;;;;;17.65;12.80;;;;;;;9.55;100.00;94673.28;10413487;28;20033;-84
2021/05/31 02:54:18;;;;;;;19.25;13.18;;;;;;;9.57;100.00;94675.69;10412104;28;20037;-85
2021/05/31 02:59:18;;;;;;;18.42;13.40;;;;;;;9.61;100.00;94676.78;10412997;28;20113;-85
2021/05/31 03:04:18;;;;;;;18.13;12.70;;;;;;;9.65;100.00;94675.16;10411349;28;20386;-85
2021/05/31 03:09:22;;;;;;;19.70;12.87;;;;;;;9.57;100.00;94665.78;10411599;28;20025;-85
2021/05/31 03:14:22;;;;;;;18.20;11.55;;;;;;;9.60;100.00;94666.31;10412253;28;20481;-85
2021/05/31 03:19:22;;;;;;;20.97;12.10;;;;;;;9.57;100.00;94665.78;10425429;28;20033;-85
2021/05/31 03:24:23;;;;;;;20.87;13.80;;;;;;;9.58;100.00;94661.22;10452109;28;20295;-84
2021/05/31 03:29:23;;;;;;;16.98;12.68;;;;;;;9.48;100.00;94653.19;10452323;28;20279;-85
2021/05/31 03:34:24;;;;;;;24.80;11.50;;;;;;;9.50;100.00;94649.16;10440585;28;20028;-85
2021/05/31 03:39:24;;;;;;;17.77;12.70;;;;;;;9.50;100.00;94648.34;10411129;28;20114;-85
2021/05/31 03:44:24;;;;;;;19.98;13.32;;;;;;;9.48;100.00;94653.97;10409584;28;21046;-85
2021/05/31 03:49:25;;;;;;;22.10;13.53;;;;;;;9.58;100.00;94661.22;10405808;28;20018;-85
2021/05/31 03:54:25;;;;;;;19.60;11.98;;;;;;;9.62;100.00;94667.66;10407346;28;20280;-84
2021/05/31 03:59:26;;;;;;;18.42;12.90;;;;;;;9.54;100.00;94660.16;10411776;28;20492;-84
2021/05/31 04:04:27;;;;;;;23.42;13.20;;;;;;;9.66;100.00;94657.22;10416315;28;20040;-84
2021/05/31 04:14:47;;;;;;;23.17;13.27;;;;;;;9.82;100.00;94672.22;10456573;28;20032;-84
2021/05/31 04:19:47;;;;;;;20.80;13.63;;;;;;;9.83;100.00;94670.34;10459727;28;20037;-84
2021/05/31 04:24:48;;;;;;;24.50;15.27;;;;;;;9.94;100.00;94655.03;10455109;28;20060;-84
2021/05/31 04:29:50;;;;;;;19.30;13.73;;;;;;;9.98;100.00;94656.09;10453989;28;20028;-83
2021/05/31 04:34:51;;;;;;;22.67;13.98;;;;;;;9.92;100.00;94650.75;10448332;28;20308;-84
2021/05/31 04:39:52;;;;;;;19.48;12.68;;;;;;;9.92;100.00;94647.22;10448130;28;20373;-85
2021/05/31 04:44:52;;;;;;;16.58;11.75;;;;;;;10.03;100.00;94646.16;10450760;28;20158;-83
2021/05/31 04:49:54;;;;;;;20.37;12.80;;;;;;;10.24;100.00;94644.22;10456067;28;20105;-77
2021/05/31 04:54:56;;;;;;;14.18;10.05;;;;;;;10.53;100.00;94646.28;10446739;28;20425;-76
2021/05/31 04:59:57;;;;;;;20.90;12.80;;;;;;;10.78;100.00;94636.53;10447493;28;20040;-76
2021/05/31 05:04:57;;;;;;;17.65;11.63;;;;;;;11.02;100.00;94627.78;10446517;28;20451;-76
2021/05/31 05:09:58;;;;;;;15.23;12.00;;;;;;;11.42;100.00;94623.22;10446090;28;20025;-76
2021/05/31 05:14:58;;;;;;;13.47;9.63;;;;;;;12.31;100.00;94614.06;10447108;28;20055;-76
2021/05/31 05:19:58;;;;;;;12.27;8.47;;;;;;;12.87;100.00;94620.66;10446237;28;20432;-77
2021/05/31 05:24:59;;;;;;;12.67;7.70;;;;;;;12.80;100.00;94621.00;10445769;28;20049;-77
2021/05/31 05:30:00;;;;;;;14.73;9.30;;;;;;;12.78;100.00;94614.28;10444494;28;20027;-77
2021/05/31 05:35:39;;;;;;;15.13;8.43;;;;;;;13.10;100.00;94616.31;10444125;28;20057;-73
2021/05/31 05:50:41;;;;;;;15.05;7.88;;;;;;;13.14;100.00;94619.22;10445778;28;20476;-73
2021/05/31 05:55:41;;;;;;;17.80;9.47;;;;;;;14.24;100.00;94611.78;10444935;28;20119;-73
2021/05/31 06:00:41;;;;;;;11.67;6.70;;;;;;;14.66;100.00;94620.72;10442763;28;20035;-73
2021/05/31 06:05:42;;;;;;;15.50;7.10;;;;;;;14.21;100.00;94620.50;10444629;28;20025;-73
2021/05/31 06:10:43;;;;;;;10.93;7.20;;;;;;;14.42;100.00;94619.00;10444579;28;20035;-73
2021/05/31 06:15:43;;;;;;;17.05;8.20;;;;;;;15.63;100.00;94611.53;10444619;28;20843;-73
2021/05/31 06:20:43;;;;;;;14.57;7.43;;;;;;;15.55;100.00;94616.59;10444416;28;20029;-73
2021/05/31 06:25:44;;;;;;;10.75;5.53;;;;;;;17.50;100.00;94604.25;10443482;28;20636;-73
2021/05/31 06:30:44;;;;;;;9.77;5.00;;;;;;;18.83;100.00;94589.97;10444106;28;20104;-73
2021/05/31 06:35:46;;;;;;;17.50;5.40;;;;;;;19.85;91.45;94589.91;10442722;28;20059;-74
2021/05/31 06:40:47;;;;;;;9.32;4.57;;;;;;;20.30;86.27;94594.56;10443053;28;20086;-74
2021/05/31 06:45:47;;;;;;;9.83;5.10;;;;;;;20.07;82.17;94582.47;10442710;28;20029;-74
2021/05/31 06:50:48;;;;;;;7.93;4.00;;;;;;;19.09;78.44;94592.56;10441021;28;20039;-73
2021/05/31 06:55:48;;;;;;;15.30;5.13;;;;;;;18.20;87.89;94601.47;10442155;28;20021;-74
2021/05/31 07:00:48;;;;;;;12.17;5.80;;;;;;;17.97;90.33;94597.34;10441561;28;20844;-73
2021/05/31 07:05:49;;;;;;;7.35;4.78;;;;;;;17.21;100.00;94589.41;10441818;28;20071;-74
2021/05/31 07:10:51;;;;;;;7.25;4.85;;;;;;;16.15;100.00;94589.41;10442224;28;20017;-73
2021/05/31 07:15:52;;;;;;;10.00;4.97;;;;;;;16.27;100.00;94591.53;10441105;28;20458;-73
2021/05/31 07:20:53;;;;;;;10.25;5.60;;;;;;;16.71;100.00;94582.41;10439994;28;20108;-74
2021/05/31 07:25:53;;;;;;;8.95;5.53;;;;;;;16.73;100.00;94579.38;10442178;28;20063;-74
2021/05/31 07:30:54;;;;;;;12.73;6.10;;;;;;;16.94;100.00;94584.25;10442888;28;20035;-74
2021/05/31 07:35:56;;;;;;;8.48;5.35;;;;;;;16.64;100.00;94584.00;10441313;28;20508;-74
2021/05/31 07:40:57;;;;;;;6.65;5.15;;;;;;;17.77;100.00;94592.25;10442319;28;20021;-74
2021/05/31 07:45:57;;;;;;;13.47;5.13;;;;;;;18.90;81.78;94581.31;10443065;28;20020;-74
2021/05/31 07:51:15;;;;;;;4.43;3.87;;;;;;;18.86;81.91;94586.59;10442165;28;20021;-74
2021/05/31 07:56:16;;;;;;;4.88;3.50;;;;;;;17.06;87.70;94574.34;10442584;28;20066;-74
2021/05/31 08:01:16;;;;;;;5.10;4.23;;;;;;;17.58;92.98;94562.72;10441015;28;20071;-74
2021/05/31 08:06:17;;;;;;;6.95;4.25;;;;;;;17.15;98.51;94560.00;10442709;28;20306;-74
2021/05/31 08:11:17;;;;;;;13.68;4.80;;;;;;;17.92;91.07;94566.50;10441741;28;20075;-74
2021/05/31 08:16:18;;;;;;;6.87;4.10;;;;;;;18.75;84.51;94563.59;10442148;28;20488;-74
2021/05/31 08:21:19;;;;;;;6.85;3.85;;;;;;;19.90;73.20;94565.16;10441717;28;20294;-74
2021/05/31 08:26:20;;;;;;;6.82;3.13;;;;;;;20.70;60.31;94559.59;10441716;28;20187;-74
2021/05/31 08:31:20;;;;;;;6.45;4.10;;;;;;;20.30;64.56;94547.34;10441997;28;20082;-74
2021/05/31 08:36:22;;;;;;;4.47;3.03;;;;;;;19.49;66.70;94549.63;10441899;28;20029;-74
2021/05/31 08:41:22;;;;;;;6.75;3.60;;;;;;;20.04;73.03;94544.94;10441523;28;20021;-74
2021/05/31 08:46:23;;;;;;;7.90;3.77;;;;;;;19.51;65.98;94534.53;10445391;28;20017;-74
2021/05/31 08:51:24;;;;;;;12.45;3.97;;;;;;;19.10;72.18;94547.88;10448896;28;20778;-74
2021/05/31 08:56:24;;;;;;;12.25;4.63;;;;;;;18.88;73.95;94538.09;10448773;28;20091;-74
2021/05/31 09:01:26;;;;;;;7.27;3.40;;;;;;;18.50;73.00;94540.84;10448839;28;20025;-74
2021/05/31 09:06:28;;;;;;;8.10;3.58;;;;;;;18.20;78.67;94538.09;10448810;28;20275;-74
2021/05/31 09:11:29;;;;;;;5.15;3.42;;;;;;;17.67;76.87;94532.00;10448682;28;20550;-74
2021/05/31 09:16:30;;;;;;;4.90;3.30;;;;;;;16.94;87.47;94540.81;10448987;28;20086;-74
2021/05/31 09:21:32;;;;;;;9.15;3.78;;;;;;;17.60;89.52;94533.28;10446951;28;20025;-74
2021/05/31 09:26:46;;;;;;;7.22;3.53;;;;;;;18.80;81.84;94538.91;10445885;28;20072;-74
2021/05/31 09:32:04;;;;;;;9.95;4.15;;;;;;;18.84;76.08;94542.56;10447310;28;20017;-74
2021/05/31 09:37:05;;;;;;;16.77;6.20;;;;;;;18.89;75.07;94536.16;10447358;28;20025;-74
2021/05/31 09:42:14;;;;;;;5.20;3.47;;;;;;;17.93;82.23;94524.59;10447180;28;20029;-74
2021/05/31 09:47:15;;;;;;;3.60;3.30;;;;;;;18.08;83.58;94523.28;10445720;28;20039;-74
2021/05/31 09:52:17;;;;;;;4.70;2.77;;;;;;;18.23;72.85;94518.41;10447333;28;20040;-74
2021/05/31 09:57:28;;;;;;;7.00;3.00;;;;;;;18.27;78.21;94516.63;10445660;28;20515;-74
2021/05/31 10:12:53;;;;;;;3.13;2.28;;;;;;;18.38;72.72;94496.09;10446222;28;20021;-74
2021/05/31 10:17:56;;;;;;;6.68;3.10;;;;;;;18.76;68.35;94495.19;10445906;28;20056;-74
2021/05/31 10:22:58;;;;;;;5.38;2.63;;;;;;;19.28;67.40;94498.66;10445552;28;20025;-74
2021/05/31 10:28:11;;;;;;;7.68;2.72;;;;;;;19.52;69.99;94487.09;10445957;28;20817;-74
2021/05/31 10:33:22;;;;;;;5.00;2.30;;;;;;;18.49;64.48;94493.78;10445760;28;20023;-74
2021/05/31 10:38:26;;;;;;;3.30;2.28;;;;;;;18.10;69.80;94480.22;10445606;28;20469;-74
2021/05/31 10:43:27;;;;;;;4.13;2.53;;;;;;;18.31;76.69;94486.81;10451807;28;20024;-74
2021/05/31 10:48:27;;;;;;;2.60;2.33;;;;;;;18.08;71.48;94468.06;10444390;28;20024;-74
2021/05/31 10:53:31;;;;;;;2.67;2.15;;;;;;;18.30;64.23;94471.66;10444855;28;20876;-74
2021/05/31 10:58:40;;;;;;;7.68;2.45;;;;;;;18.80;69.25;94468.13;10442649;28;20883;-73
2021/05/31 11:04:04;;;;;;;2.65;1.90;;;;;;;18.73;61.75;94463.19;10444367;28;20029;-74
2021/05/31 11:09:10;;;;;;;2.63;2.22;;;;;;;18.21;66.74;94460.78;10444084;28;20032;-74
2021/05/31 11:14:11;;;;;;;4.28;2.63;;;;;;;18.69;69.64;94445.94;10453438;28;20036;-73
2021/05/31 11:19:12;;;;;;;4.00;2.83;;;;;;;19.12;67.08;94444.03;10441922;28;20025;-74
2021/05/31 11:24:15;;;;;;;5.15;2.55;;;;;;;19.20;68.36;94443.16;10443660;28;20037;-74
2021/05/31 11:29:16;;;;;;;12.52;2.80;;;;;;;19.07;61.61;94431.38;10443078;28;20072;-74
2021/05/31 11:34:16;;;;;;;3.72;2.10;;;;;;;18.92;64.72;94440.16;10442775;28;20025;-75
2021/05/31 11:39:18;;;;;;;7.60;2.20;;;;;;;18.32;63.64;94447.63;10443574;28;20039;-74
2021/05/31 11:44:30;;;;;;;5.70;2.38;;;;;;;18.57;64.97;94438.50;10441449;28;20034;-74
2021/05/31 11:49:37;;;;;;;7.95;2.97;;;;;;;18.46;67.71;94440.03;10443276;28;20429;-74
2021/05/31 11:54:39;;;;;;;2.67;1.88;;;;;;;18.43;61.77;94452.38;10449779;28;20029;-74
2021/05/31 11:59:44;;;;;;;3.50;2.08;;;;;;;18.24;58.07;94460.94;10442252;28;20033;-74
2021/05/31 12:04:50;;;;;;;4.72;1.50;;;;;;;18.22;59.16;94460.50;10439517;28;20051;-74
2021/05/31 12:09:52;;;;;;;3.38;1.45;;;;;;;18.03;52.72;94458.19;10440534;28;20021;-74
2021/05/31 12:14:54;;;;;;;1.33;1.10;;;;;;;17.90;53.67;94454.53;10440778;28;20484;-74
2021/05/31 12:19:56;;;;;;;4.60;1.73;;;;;;;17.81;60.42;94456.47;10442549;28;20381;-74
2021/05/31 12:25:00;;;;;;;6.00;2.17;;;;;;;17.69;53.73;94448.22;10450108;28;20099;-74
2021/05/31 12:30:03;;;;;;;1.92;1.30;;;;;;;17.60;58.72;94446.31;10448833;28;20021;-74
2021/05/31 12:35:05;;;;;;;6.18;1.85;;;;;;;17.58;63.38;94443.13;10449894;28;20087;-74
2021/05/31 12:40:12;;;;;;;2.42;1.83;;;;;;;17.93;59.12;94436.78;10448938;28;20112;-74
2021/05/31 12:45:17;;;;;;;1.75;1.40;;;;;;;18.08;60.33;94430.81;10449262;28;20025;-75
2021/05/31 12:50:27;;;;;;;3.47;1.58;;;;;;;18.48;55.96;94432.31;10448965;28;20020;-74
2021/05/31 12:55:29;;;;;;;3.75;1.90;;;;;;;18.76;53.59;94431.78;10448863;28;20078;-74
2021/05/31 13:00:34;;;;;;;3.70;1.45;;;;;;;18.93;52.50;94428.16;10448917;28;20025;-74
2021/05/31 13:05:39;;;;;;;2.58;1.88;;;;;;;19.11;49.62;94418.69;10447096;28;20036;-74
2021/05/31 13:10:44;;;;;;;3.35;1.13;;;;;;;19.09;50.30;94414.72;10448731;28;20024;-74
2021/05/31 13:15:58;;;;;;;3.35;1.45;;;;;;;18.97;56.63;94422.84;10448042;28;20033;-74
2021/05/31 13:21:16;;;;;;;3.53;1.45;;;;;;;19.02;53.87;94415.28;10447870;28;20024;-75
2021/05/31 13:26:24;;;;;;;2.20;1.10;;;;;;;18.79;48.15;94417.50;10447672;28;20140;-74
2021/05/31 13:31:27;;;;;;;2.38;1.67;;;;;;;19.09;52.96;94417.47;10446933;28;20076;-74
2021/05/31 13:36:29;;;;;;;2.40;1.20;;;;;;;18.43;52.03;94422.44;10446835;28;20029;-74
2021/05/31 13:41:37;;;;;;;4.18;1.48;;;;;;;18.34;55.12;94418.19;10446450;28;20033;-74
2021/05/31 13:46:40;;;;;;;6.35;1.50;;;;;;;18.17;64.84;94429.94;10446571;28;20124;-74
2021/05/31 13:51:42;;;;;;;2.58;1.70;;;;;;;17.90;68.48;94421.91;10446769;28;20029;-73
2021/05/31 13:56:42;;;;;;;1.85;1.38;;;;;;;17.23;68.46;94424.22;10446584;28;20024;-74
2021/05/31 14:01:43;;;;;;;10.02;2.40;;;;;;;17.30;66.67;94420.97;10446631;28;20048;-74
2021/05/31 14:06:43;;;;;;;2.90;1.52;;;;;;;17.20;65.28;94418.63;10446977;28;20025;-74
2021/05/31 14:11:44;;;;;;;2.80;1.73;;;;;;;16.98;71.06;94416.91;10444500;28;20072;-74
2021/05/31 14:16:44;;;;;;;4.05;1.50;;;;;;;16.49;65.38;94409.69;10446285;28;20480;-74
2021/05/31 14:21:45;;;;;;;2.87;2.20;;;;;;;16.28;67.31;94409.53;10445974;28;20025;-74
2021/05/31 14:26:45;;;;;;;8.15;2.45;;;;;;;16.59;71.73;94408.63;10444812;28;20053;-74
2021/05/31 14:31:45;;;;;;;2.85;1.67;;;;;;;16.84;71.81;94409.72;10444831;28;20033;-74
2021/05/31 14:36:46;;;;;;;5.82;1.77;;;;;;;16.82;61.41;94411.16;10445333;28;20446;-74
2021/05/31 14:41:46;;;;;;;3.33;1.87;;;;;;;16.78;66.36;94410.97;10444376;28;20144;-74
2021/05/31 14:46:47;;;;;;;2.10;1.30;;;;;;;17.21;60.67;94404.72;10444009;28;20282;-75
2021/05/31 14:51:48;;;;;;;3.97;1.10;;;;;;;17.36;58.92;94410.78;10444834;28;20268;-74
2021/05/31 14:56:51;;;;;;;3.28;1.77;;;;;;;17.60;58.22;94407.50;10444260;28;20393;-74
2021/05/31 15:01:52;;;;;;;2.38;1.80;;;;;;;17.12;62.99;94414.81;10443733;28;20111;-74
2021/05/31 15:06:52;;;;;;;6.28;1.92;;;;;;;16.54;71.69;94431.25;10443679;28;20036;-74
2021/05/31 15:11:53;;;;;;;11.53;1.70;;;;;;;16.00;76.30;94423.34;10443410;28;20025;-74
2021/05/31 15:16:53;;;;;;;2.10;1.88;;;;;;;15.98;82.75;94422.88;10443151;28;20283;-74
2021/05/31 15:21:54;;;;;;;1.87;1.20;;;;;;;15.79;78.43;94433.97;10443315;28;20257;-74
2021/05/31 15:26:54;;;;;;;1.90;1.70;;;;;;;15.82;79.23;94430.66;10441863;28;20049;-74
2021/05/31 15:31:54;;;;;;;2.27;1.50;;;;;;;15.64;78.22;94434.34;10443010;28;20025;-74
2021/05/31 15:36:55;;;;;;;6.85;1.92;;;;;;;15.59;84.03;94429.09;10442373;28;20083;-74
2021/05/31 15:41:55;;;;;;;2.63;1.60;;;;;;;15.47;88.30;94430.44;10442870;28;20091;-74
2021/05/31 15:46:57;;;;;;;3.50;2.00;;;;;;;15.52;92.76;94424.13;10441259;28;20047;-74
2021/05/31 15:51:58;;;;;;;5.03;1.95;;;;;;;15.43;89.48;94420.56;10442403;28;20033;-74
2021/05/31 15:56:58;;;;;;;3.03;2.33;;;;;;;15.07;93.66;94418.78;10441733;28;20041;-74
2021/05/31 16:02:01;;;;;;;5.05;3.25;;;;;;;15.17;94.68;94413.91;10442489;28;20302;-74
2021/05/31 16:07:01;;;;;;;3.03;1.95;;;;;;;15.31;90.97;94408.41;10440509;28;20079;-74
2021/05/31 16:12:02;;;;;;;11.65;2.53;;;;;;;15.34;98.00;94420.53;10442652;28;20397;-74
2021/05/31 16:17:02;;;;;;;8.63;1.83;;;;;;;15.05;83.91;94416.38;10441675;28;20115;-74
2021/05/31 16:22:05;;;;;;;2.92;1.90;;;;;;;14.75;90.56;94424.16;10441704;28;20492;-74
2021/05/31 16:27:06;;;;;;;2.30;1.85;;;;;;;14.57;94.09;94417.78;10440920;28;20085;-74
2021/05/31 16:32:06;;;;;;;6.00;3.47;;;;;;;14.27;93.62;94424.66;10442108;28;20123;-73
2021/05/31 16:37:08;;;;;;;8.25;2.90;;;;;;;14.34;100.00;94423.16;10439721;28;20025;-73
2021/05/31 16:42:08;;;;;;;3.55;2.58;;;;;;;14.22;100.00;94420.19;10441360;28;20037;-73
2021/05/31 16:47:09;;;;;;;4.30;2.50;;;;;;;14.07;100.00;94424.00;10439590;28;20106;-74
2021/05/31 16:52:09;;;;;;;5.38;1.88;;;;;;;13.91;100.00;94426.22;10440487;28;20052;-73
2021/05/31 16:57:11;;;;;;;3.07;2.13;;;;;;;13.89;100.00;94424.94;10441194;28;20030;-73
2021/05/31 17:02:12;;;;;;;7.35;2.25;;;;;;;13.81;100.00;94427.25;10440037;28;20292;-73
2021/05/31 17:07:12;;;;;;;5.00;2.50;;;;;;;13.67;100.00;94426.41;10442013;28;20029;-73
2021/05/31 17:22:50;;;;;;;7.65;3.50;;;;;;;13.32;100.00;94452.97;10447513;28;20674;-73
2021/05/31 17:27:51;;;;;;;7.20;2.75;;;;;;;13.29;100.00;94473.25;10447141;28;20053;-73
2021/05/31 17:32:53;;;;;;;5.45;1.80;;;;;;;13.38;98.41;94475.28;10446811;28;20064;-73
2021/05/31 17:37:54;;;;;;;3.30;2.22;;;;;;;13.23;96.85;94485.22;10446143;28;20033;-74
2021/05/31 17:42:57;;;;;;;4.85;2.15;;;;;;;13.23;97.44;94485.22;10447056;28;20033;-73
2021/05/31 17:47:57;;;;;;;5.72;1.88;;;;;;;13.10;100.00;94484.09;10441418;28;20021;-73
2021/05/31 17:52:57;;;;;;;4.57;2.10;;;;;;;12.96;100.00;94486.75;10440609;28;20526;-73
2021/05/31 17:58:01;;;;;;;3.13;1.63;;;;;;;12.79;100.00;94479.16;10443732;28;20291;-73
2021/05/31 18:03:04;;;;;;;2.72;1.83;;;;;;;12.52;100.00;94481.75;10445875;28;20037;-73
2021/05/31 18:08:11;;;;;;;2.47;1.60;;;;;;;12.22;100.00;94486.44;10445179;28;20032;-73
2021/05/31 18:13:11;;;;;;;6.47;2.00;;;;;;;12.00;100.00;94493.19;10450355;28;20036;-76
2021/05/31 18:18:12;;;;;;;4.68;2.00;;;;;;;11.93;100.00;94493.50;10445754;28;20092;-73
2021/05/31 18:23:14;;;;;;;3.80;1.60;;;;;;;11.67;100.00;94501.06;10444843;28;20037;-73
2021/05/31 18:28:14;;;;;;;2.25;1.80;;;;;;;11.55;100.00;94506.81;10444369;28;20044;-72
2021/05/31 18:33:15;;;;;;;4.33;2.10;;;;;;;11.24;100.00;94506.31;10444332;28;20033;-72
2021/05/31 18:38:16;;;;;;;2.47;1.83;;;;;;;11.08;100.00;94532.56;10444992;28;20663;-72
2021/05/31 18:43:16;;;;;;;9.20;2.30;;;;;;;11.16;100.00;94536.53;10442776;28;20502;-73
2021/05/31 18:48:17;;;;;;;9.05;2.63;;;;;;;11.14;100.00;94538.69;10443625;28;20032;-73
2021/05/31 18:53:17;;;;;;;4.97;2.53;;;;;;;11.04;100.00;94545.75;10443683;28;20032;-72
2021/05/31 18:58:18;;;;;;;5.68;2.10;;;;;;;11.08;100.00;94562.94;10443671;28;20287;-72
2021/05/31 19:03:18;;;;;;;4.13;2.07;;;;;;;11.02;100.00;94555.19;10443019;28;20106;-73
2021/05/31 19:08:20;;;;;;;3.70;2.50;;;;;;;10.80;100.00;94552.91;10443892;28;20064;-73
2021/05/31 19:13:25;;;;;;;3.17;2.00;;;;;;;11.06;100.00;94556.22;10442886;28;20036;-73
2021/05/31 19:18:26;;;;;;;5.03;2.17;;;;;;;11.10;100.00;94550.00;10441602;28;20464;-72
2021/05/31 19:23:26;;;;;;;4.10;2.13;;;;;;;11.11;100.00;94545.44;10442084;28;20124;-73
2021/05/31 19:28:27;;;;;;;2.70;2.25;;;;;;;11.13;100.00;94537.09;10437284;28;20050;-73
2021/05/31 19:33:27;;;;;;;1.87;1.57;;;;;;;11.09;100.00;94542.22;10400635;28;20106;-73
2021/05/31 19:38:28;;;;;;;4.78;1.80;;;;;;;10.77;100.00;94546.19;10401385;28;20287;-73
2021/05/31 19:43:29;;;;;;;5.72;2.08;;;;;;;10.85;100.00;94542.13;10414742;28;20026;-73
2021/05/31 19:48:29;;;;;;;3.53;2.38;;;;;;;10.97;100.00;94547.97;10400589;28;20136;-73
2021/05/31 19:53:32;;;;;;;2.80;1.80;;;;;;;11.05;100.00;94546.53;10401405;28;20029;-73
2021/05/31 20:03:51;;;;;;;5.13;2.25;;;;;;;10.82;100.00;94542.69;10400034;28;20493;-73
2021/05/31 20:08:51;;;;;;;4.10;2.50;;;;;;;10.62;100.00;94533.69;10400555;28;20037;-73
2021/05/31 20:13:52;;;;;;;6.10;3.97;;;;;;;10.80;100.00;94531.41;10401107;28;20039;-73
2021/05/31 20:18:52;;;;;;;5.30;2.40;;;;;;;10.73;100.00;94537.91;10399097;28;20296;-73
2021/05/31 20:23:53;;;;;;;6.10;2.30;;;;;;;10.66;100.00;94541.97;10399552;28;20067;-73
2021/05/31 20:28:53;;;;;;;6.40;2.55;;;;;;;10.48;100.00;94535.34;10400189;28;20829;-73
2021/05/31 20:33:54;;;;;;;4.93;2.50;;;;;;;10.37;100.00;94526.56;10399883;28;20144;-73
2021/05/31 20:38:55;;;;;;;5.25;3.00;;;;;;;10.42;100.00;94531.88;10399222;28;20280;-73
2021/05/31 20:43:55;;;;;;;8.07;3.15;;;;;;;10.41;100.00;94524.94;10418003;28;20051;-73
2021/05/31 20:48:55;;;;;;;4.43;3.50;;;;;;;10.45;100.00;94525.97;10448856;28;20078;-73
2021/05/31 20:53:56;;;;;;;4.80;3.57;;;;;;;10.46;100.00;94535.63;10448341;28;20654;-73
2021/05/31 20:58:56;;;;;;;6.80;3.35;;;;;;;10.27;100.00;94538.94;10448755;28;20480;-73
2021/05/31 21:03:57;;;;;;;6.25;3.95;;;;;;;10.15;100.00;94534.97;10448219;28;20029;-74
2021/05/31 21:09:06;;;;;;;5.78;4.32;;;;;;;10.21;100.00;94529.28;10450232;28;20109;-78
2021/05/31 21:14:09;;;;;;;6.60;5.05;;;;;;;10.37;100.00;94527.34;10458276;28;20027;-78
2021/05/31 21:19:10;;;;;;;8.10;5.35;;;;;;;10.24;100.00;94534.09;10455284;28;20071;-79
2021/05/31 21:24:12;;;;;;;5.53;4.88;;;;;;;10.38;100.00;94522.78;10454984;28;20063;-79
2021/05/31 21:29:12;;;;;;;6.72;5.63;;;;;;;10.48;100.00;94524.59;10455609;28;20778;-78
2021/05/31 21:34:13;;;;;;;9.03;5.93;;;;;;;10.48;100.00;94524.59;10457171;28;20025;-78
2021/05/31 21:39:19;;;;;;;8.60;5.17;;;;;;;10.16;100.00;94518.56;10455201;28;20123;-79
2021/05/31 21:44:21;;;;;;;9.70;6.38;;;;;;;9.90;100.00;94523.22;10456794;28;20028;-79
2021/05/31 21:49:21;;;;;;;8.98;6.57;;;;;;;9.82;100.00;94523.78;10455090;28;20656;-79
2021/05/31 21:54:21;;;;;;;7.23;5.80;;;;;;;9.69;100.00;94512.56;10448565;28;20021;-78
2021/05/31 21:59:22;;;;;;;8.50;6.17;;;;;;;9.79;100.00;94508.25;10447576;28;20290;-78
2021/05/31 22:04:22;;;;;;;10.93;7.03;;;;;;;9.92;100.00;94504.94;10451130;28;20025;-78
2021/05/31 22:09:23;;;;;;;9.65;6.70;;;;;;;9.81;100.00;94500.69;10456223;28;20104;-79
2021/05/31 22:14:33;;;;;;;8.88;6.50;;;;;;;9.85;100.00;94493.72;10456220;28;20487;-78
2021/05/31 22:19:39;;;;;;;11.52;6.32;;;;;;;9.81;100.00;94484.59;10455863;28;20028;-79
2021/05/31 22:24:40;;;;;;;9.20;6.38;;;;;;;9.79;100.00;94492.13;10453602;28;20045;-78
2021/05/31 22:34:59;;;;;;;10.18;7.57;;;;;;;9.73;100.00;94464.53;10455099;28;20037;-78
2021/05/31 22:40:01;;;;;;;10.88;6.93;;;;;;;9.62;100.00;94477.16;10454146;28;20025;-78
2021/05/31 22:45:34;;;;;;;14.52;6.63;;;;;;;9.70;100.00;94467.75;10453782;28;20025;-79
2021/05/31 23:17:10;;;;;;;10.60;6.70;;;;;;;9.50;100.00;94449.81;10453976;28;20029;-78
2021/05/31 23:22:11;;;;;;;11.57;7.03;;;;;;;9.49;100.00;94450.91;10452474;28;20025;-78
2021/05/31 23:27:12;;;;;;;9.85;6.68;;;;;;;9.45;100.00;94452.53;10453502;28;20049;-78
2021/05/31 23:32:13;;;;;;;12.00;6.70;;;;;;;9.45;100.00;94453.34;10453413;28;20460;-78
2021/05/31 23:37:15;;;;;;;9.57;6.23;;;;;;;9.48;100.00;94436.69;10452124;28;20021;-78
2021/05/31 23:42:15;;;;;;;10.02;6.45;;;;;;;9.41;100.00;94449.59;10453058;28;20045;-79
2021/05/31 23:47:16;;;;;;;8.30;5.37;;;;;;;9.50;100.00;94439.09;10453906;28;20048;-79
2021/05/31 23:52:17;;;;;;;8.95;5.90;;;;;;;9.46;100.00;94441.53;10453203;28;20078;-79
2021/05/31 23:57:17;;;;;;;9.18;6.60;;;;;;;9.47;100.00;94437.75;10451626;28;20060;-79
